Time;durP1;ratioP1;P1;durP2;ratioP2;P2;SDS_P1;SDS_P2;PMS_P1;PMS_P2;Temp;Humidity;BMP_temperature;BMP_pressure;BME280_temperature;BME280_humidity;BME280_pressure;Samples;Min_cycle;Max_cycle;Signal;HPM_P1;HPM_P2
2022/05/26 00:01:47;;;;;;;;;;;;;;;;;;4945957;28;136977;-65
2022/05/26 00:04:13;;;;;;;;;;;;;;;;;;4940279;28;136658;-65
2022/05/26 00:06:40;;;;;;;;;;;;;;;;;;4939585;28;119905;-65
2022/05/26 00:09:06;;;;;;;;;;;;;;;;;;4947369;28;135094;-65
2022/05/26 00:11:32;;;;;;;;;;;;;;;;;;4947050;28;136968;-65
2022/05/26 00:14:01;;;;;;;;;;;;;;;;;;4940797;28;136570;-65
2022/05/26 00:16:27;;;;;;;;;;;;;;;;;;4945975;28;137351;-65
2022/05/26 00:18:54;;;;;;;;;;;;;;;;;;4952492;28;122162;-65
2022/05/26 00:21:20;;;;;;;;;;;;;;;;;;4943869;28;136453;-65
2022/05/26 00:23:46;;;;;;;;;;;;;;;;;;4946782;28;137338;-65
2022/05/26 00:26:14;;;;;;;;;;;;;;;;;;4945571;28;125508;-65
2022/05/26 00:28:40;;;;;;;;;;;;;;;;;;4944739;28;136772;-65
2022/05/26 00:31:06;;;;;;;;;;;;;;;;;;4946475;28;137550;-65
2022/05/26 00:33:33;;;;;;;;;;;;;;;;;;4945532;28;105813;-65
2022/05/26 00:35:59;;;;;;;;;;;;;;;;;;4940544;28;107597;-65
2022/05/26 00:38:25;;;;;;;;;;;;;;;;;;4945682;28;122799;-65
2022/05/26 00:40:52;;;;;;;;;;;;;;;;;;4944994;28;135180;-64
2022/05/26 00:43:18;;;;;;;;;;;;;;;;;;4945338;28;136380;-65
2022/05/26 00:45:45;;;;;;;;;;;;;;;;;;4962521;28;121922;-65
2022/05/26 00:48:11;;;;;;;;;;;;;;;;;;4946806;28;106092;-65
2022/05/26 00:50:37;;;;;;;;;;;;;;;;;;4932206;28;137987;-65
2022/05/26 00:53:03;;;;;;;;;;;;;;;;;;4945779;28;121586;-65
2022/05/26 00:55:30;;;;;;;;;;;;;;;;;;4953528;28;136528;-65
2022/05/26 00:57:56;;;;;;;;;;;;;;;;;;4948886;28;121858;-65
2022/05/26 01:00:22;;;;;;;;;;;;;;;;;;4955061;28;123995;-65
2022/05/26 01:02:48;;;;;;;;;;;;;;;;;;4950329;28;135061;-64
2022/05/26 01:05:15;;;;;;;;;;;;;;;;;;4954685;28;122355;-64
2022/05/26 01:07:41;;;;;;;;;;;;;;;;;;4949315;28;134937;-65
2022/05/26 01:10:07;;;;;;;;;;;;;;;;;;4960349;22;138343;-65
2022/05/26 01:12:34;;;;;;;;;;;;;;;;;;4966207;28;123195;-65
2022/05/26 01:15:00;;;;;;;;;;;;;;;;;;4966518;28;130597;-65
2022/05/26 01:17:26;;;;;;;;;;;;;;;;;;4968856;28;139242;-65
2022/05/26 01:19:53;;;;;;;;;;;;;;;;;;4966669;28;135665;-65
2022/05/26 01:22:19;;;;;;;;;;;;;;;;;;4968179;28;133696;-65
2022/05/26 01:24:45;;;;;;;;;;;;;;;;;;4969977;28;106232;-65
2022/05/26 01:27:12;;;;;;;;;;;;;;;;;;4967711;28;106495;-65
2022/05/26 01:29:38;;;;;;;;;;;;;;;;;;4963410;28;137747;-65
2022/05/26 01:32:04;;;;;;;;;;;;;;;;;;4962352;28;121935;-65
2022/05/26 01:34:31;;;;;;;;;;;;;;;;;;4969566;28;132465;-65
2022/05/26 01:36:57;;;;;;;;;;;;;;;;;;4969904;28;123575;-65
2022/05/26 01:39:23;;;;;;;;;;;;;;;;;;4971270;28;120441;-65
2022/05/26 01:41:49;;;;;;;;;;;;;;;;;;4962532;28;125670;-65
2022/05/26 01:44:16;;;;;;;;;;;;;;;;;;4967433;28;123253;-65
2022/05/26 01:46:42;;;;;;;;;;;;;;;;;;4968970;28;135807;-65
2022/05/26 01:49:08;;;;;;;;;;;;;;;;;;4965394;28;133774;-65
2022/05/26 01:51:35;;;;;;;;;;;;;;;;;;4966950;28;120507;-65
2022/05/26 01:54:01;;;;;;;;;;;;;;;;;;4969464;28;130861;-65
2022/05/26 01:56:28;;;;;;;;;;;;;;;;;;4964529;28;131600;-65
2022/05/26 01:58:54;;;;;;;;;;;;;;;;;;4972457;28;122218;-65
2022/05/26 02:01:20;;;;;;;;;;;;;;;;;;4965734;28;136861;-65
2022/05/26 02:03:46;;;;;;;;;;;;;;;;;;4968295;28;124154;-65
2022/05/26 02:06:13;;;;;;;;;;;;;;;;;;4964953;28;119292;-65
2022/05/26 02:08:39;;;;;;;;;;;;;;;;;;4983679;28;136799;-65
2022/05/26 02:11:06;;;;;;;;;;;;;;;;;;4967347;28;120534;-65
2022/05/26 02:13:32;;;;;;;;;;;;;;;;;;4970282;28;137286;-65
2022/05/26 02:15:59;;;;;;;;;;;;;;;;;;4965887;28;134702;-65
2022/05/26 02:18:25;;;;;;;;;;;;;;;;;;4961693;28;124374;-65
2022/05/26 02:20:51;;;;;;;;;;;;;;;;;;4968748;28;134952;-65
2022/05/26 02:23:18;;;;;;;;;;;;;;;;;;4966088;28;122004;-65
2022/05/26 02:25:44;;;;;;;;;;;;;;;;;;4960058;28;135650;-65
2022/05/26 02:28:10;;;;;;;;;;;;;;;;;;4965734;28;136369;-65
2022/05/26 02:30:37;;;;;;;;;;;;;;;;;;4969091;28;123590;-65
2022/05/26 02:33:03;;;;;;;;;;;;;;;;;;4963374;28;112566;-65
2022/05/26 02:35:29;;;;;;;;;;;;;;;;;;4967393;28;133744;-65
2022/05/26 02:37:56;;;;;;;;;;;;;;;;;;4978954;28;119131;-65
2022/05/26 02:40:22;;;;;;;;;;;;;;;;;;4967781;28;136513;-66
2022/05/26 02:42:48;;;;;;;;;;;;;;;;;;4971084;28;125848;-65
2022/05/26 02:45:15;;;;;;;;;;;;;;;;;;4976176;28;137627;-65
2022/05/26 02:47:41;;;;;;;;;;;;;;;;;;4967227;28;135534;-65
2022/05/26 02:50:08;;;;;;;;;;;;;;;;;;4959152;28;121487;-65
2022/05/26 02:52:34;;;;;;;;;;;;;;;;;;4965380;28;137249;-66
2022/05/26 02:55:00;;;;;;;;;;;;;;;;;;4963807;28;136028;-65
2022/05/26 02:57:27;;;;;;;;;;;;;;;;;;4963788;28;123491;-65
2022/05/26 02:59:54;;;;;;;;;;;;;;;;;;4965057;28;133853;-65
2022/05/26 03:02:20;;;;;;;;;;;;;;;;;;4964429;28;137206;-64
2022/05/26 03:04:46;;;;;;;;;;;;;;;;;;4970703;28;123567;-65
2022/05/26 03:07:12;;;;;;;;;;;;;;;;;;4965678;28;137452;-65
2022/05/26 03:09:39;;;;;;;;;;;;;;;;;;4966841;28;107267;-65
2022/05/26 03:12:05;;;;;;;;;;;;;;;;;;4967006;28;136586;-65
2022/05/26 03:14:31;;;;;;;;;;;;;;;;;;4962129;28;120111;-65
2022/05/26 03:16:58;;;;;;;;;;;;;;;;;;4967592;28;126367;-65
2022/05/26 03:19:24;;;;;;;;;;;;;;;;;;4963328;28;134868;-64
2022/05/26 03:21:50;;;;;;;;;;;;;;;;;;4953011;28;137199;-64
2022/05/26 03:24:16;;;;;;;;;;;;;;;;;;4961751;28;123165;-64
2022/05/26 03:26:43;;;;;;;;;;;;;;;;;;4965690;28;135284;-65
2022/05/26 03:29:09;;;;;;;;;;;;;;;;;;4965204;28;122464;-65
2022/05/26 03:31:35;;;;;;;;;;;;;;;;;;4966140;28;135377;-65
2022/05/26 03:42:17;;;;;;;;;;;;;;;;;;4965102;28;116424;-64
2022/05/26 03:44:44;;;;;;;;;;;;;;;;;;4964382;28;121622;-65
2022/05/26 03:47:10;;;;;;;;;;;;;;;;;;4968085;28;133044;-65
2022/05/26 03:49:36;;;;;;;;;;;;;;;;;;4965280;28;121373;-65
2022/05/26 03:52:02;;;;;;;;;;;;;;;;;;4960864;28;132991;-65
2022/05/26 03:54:30;;;;;;;;;;;;;;;;;;4963904;28;108566;-65
2022/05/26 03:56:57;;;;;;;;;;;;;;;;;;4968748;28;121988;-65
2022/05/26 03:59:23;;;;;;;;;;;;;;;;;;4963246;28;136616;-64
2022/05/26 04:01:50;;;;;;;;;;;;;;;;;;4963127;28;111760;-65
2022/05/26 04:04:17;;;;;;;;;;;;;;;;;;4965797;28;122082;-65
2022/05/26 04:06:43;;;;;;;;;;;;;;;;;;4965493;28;135209;-65
2022/05/26 04:09:10;;;;;;;;;;;;;;;;;;4965767;28;137030;-65
2022/05/26 04:11:36;;;;;;;;;;;;;;;;;;4966733;28;137342;-65
2022/05/26 04:14:02;;;;;;;;;;;;;;;;;;4962457;28;137100;-65
2022/05/26 04:16:28;;;;;;;;;;;;;;;;;;4965510;28;113598;-65
2022/05/26 04:18:55;;;;;;;;;;;;;;;;;;4967308;28;134150;-65
2022/05/26 04:21:21;;;;;;;;;;;;;;;;;;4969907;28;107977;-66
2022/05/26 04:23:47;;;;;;;;;;;;;;;;;;4965224;28;119517;-65
2022/05/26 04:26:14;;;;;;;;;;;;;;;;;;4971902;28;127954;-65
2022/05/26 04:28:40;;;;;;;;;;;;;;;;;;4956984;28;137142;-65
2022/05/26 04:31:06;;;;;;;;;;;;;;;;;;4972780;28;125573;-66
2022/05/26 04:33:33;;;;;;;;;;;;;;;;;;4963201;28;135548;-65
2022/05/26 04:35:59;;;;;;;;;;;;;;;;;;4966962;28;124219;-65
2022/05/26 04:38:25;;;;;;;;;;;;;;;;;;4963299;28;135087;-65
2022/05/26 04:40:52;;;;;;;;;;;;;;;;;;4963288;28;135577;-65
2022/05/26 04:43:18;;;;;;;;;;;;;;;;;;4962339;28;122073;-64
2022/05/26 04:45:44;;;;;;;;;;;;;;;;;;4961831;28;136883;-65
2022/05/26 04:48:11;;;;;;;;;;;;;;;;;;4964567;28;135301;-65
2022/05/26 04:50:37;;;;;;;;;;;;;;;;;;4967373;28;121899;-66
2022/05/26 04:53:04;;;;;;;;;;;;;;;;;;4968335;28;108222;-67
2022/05/26 04:55:30;;;;;;;;;;;;;;;;;;4970071;28;126418;-67
2022/05/26 04:57:56;;;;;;;;;;;;;;;;;;4961317;28;135367;-66
2022/05/26 05:00:22;;;;;;;;;;;;;;;;;;4965864;28;136809;-66
2022/05/26 05:02:49;;;;;;;;;;;;;;;;;;4966152;28;123473;-66
2022/05/26 05:05:15;;;;;;;;;;;;;;;;;;4966695;28;137380;-66
2022/05/26 05:07:41;;;;;;;;;;;;;;;;;;4970351;28;133419;-66
2022/05/26 05:10:08;;;;;;;;;;;;;;;;;;4961902;28;117650;-65
2022/05/26 05:12:35;;;;;;;;;;;;;;;;;;4962774;28;136623;-66
2022/05/26 05:15:01;;;;;;;;;;;;;;;;;;4974153;28;136489;-65
2022/05/26 05:17:27;;;;;;;;;;;;;;;;;;4962552;28;132389;-66
2022/05/26 05:19:54;;;;;;;;;;;;;;;;;;4969925;28;137069;-66
2022/05/26 05:22:20;;;;;;;;;;;;;;;;;;4967099;28;106328;-66
2022/05/26 05:24:47;;;;;;;;;;;;;;;;;;4968869;28;136352;-66
2022/05/26 05:27:13;;;;;;;;;;;;;;;;;;4965528;28;136291;-66
2022/05/26 05:29:39;;;;;;;;;;;;;;;;;;4966297;28;109774;-66
2022/05/26 05:32:05;;;;;;;;;;;;;;;;;;4968634;28;136390;-66
2022/05/26 05:34:33;;;;;;;;;;;;;;;;;;4966302;28;137964;-66
2022/05/26 05:37:05;;;;;;;;;;;;;;;;;;4972321;28;120654;-67
2022/05/26 05:39:31;;;;;;;;;;;;;;;;;;4967342;28;107124;-65
2022/05/26 05:41:57;;;;;;;;;;;;;;;;;;4967958;28;121968;-65
2022/05/26 05:44:24;;;;;;;;;;;;;;;;;;4969991;28;135935;-65
2022/05/26 05:46:53;;;;;;;;;;;;;;;;;;4967582;28;131491;-65
2022/05/26 05:49:20;;;;;;;;;;;;;;;;;;4968288;28;112329;-65
2022/05/26 05:51:46;;;;;;;;;;;;;;;;;;4964875;28;134720;-65
2022/05/26 05:54:12;;;;;;;;;;;;;;;;;;4959707;28;137549;-65
2022/05/26 05:56:38;;;;;;;;;;;;;;;;;;4969435;28;110799;-65
2022/05/26 05:59:05;;;;;;;;;;;;;;;;;;4969436;28;134141;-66
2022/05/26 06:01:31;;;;;;;;;;;;;;;;;;4962463;28;123072;-63
2022/05/26 06:03:57;;;;;;;;;;;;;;;;;;4966950;28;135180;-64
2022/05/26 06:06:24;;;;;;;;;;;;;;;;;;4959842;28;137929;-64
2022/05/26 06:08:50;;;;;;;;;;;;;;;;;;4964859;28;125638;-66
2022/05/26 06:11:16;;;;;;;;;;;;;;;;;;4959309;28;136464;-64
2022/05/26 06:13:42;;;;;;;;;;;;;;;;;;4967889;28;137096;-64
2022/05/26 06:16:13;;;;;;;;;;;;;;;;;;4967311;28;108173;-64
2022/05/26 06:18:39;;;;;;;;;;;;;;;;;;4968023;28;136691;-64
2022/05/26 06:21:05;;;;;;;;;;;;;;;;;;4966641;28;110351;-64
2022/05/26 06:23:32;;;;;;;;;;;;;;;;;;4966824;28;136797;-64
2022/05/26 06:25:58;;;;;;;;;;;;;;;;;;4977103;28;137085;-64
2022/05/26 06:31:09;;;;;;;;;;;;;;;;;;4963151;28;136552;-65
2022/05/26 06:39:06;;;;;;;;;;;;;;;;;;4959835;28;135084;-65
2022/05/26 06:44:17;;;;;;;;;;;;;;;;;;4969191;28;133847;-64
2022/05/26 06:46:43;;;;;;;;;;;;;;;;;;4964672;28;124327;-64
2022/05/26 06:49:10;;;;;;;;;;;;;;;;;;4963104;28;106653;-65
2022/05/26 06:51:39;;;;;;;;;;;;;;;;;;4967795;28;137111;-65
2022/05/26 06:54:05;;;;;;;;;;;;;;;;;;4965668;28;137609;-65
2022/05/26 06:56:31;;;;;;;;;;;;;;;;;;4961079;28;120967;-66
2022/05/26 06:58:57;;;;;;;;;;;;;;;;;;4968782;28;136944;-67
2022/05/26 07:01:24;;;;;;;;;;;;;;;;;;4963249;28;137504;-66
2022/05/26 07:03:50;;;;;;;;;;;;;;;;;;4965617;28;123509;-63
2022/05/26 07:06:16;;;;;;;;;;;;;;;;;;4959422;28;135255;-63
2022/05/26 07:08:43;;;;;;;;;;;;;;;;;;4966591;28;123216;-63
2022/05/26 07:11:09;;;;;;;;;;;;;;;;;;4969256;28;107069;-66
2022/05/26 07:13:35;;;;;;;;;;;;;;;;;;4964776;28;137015;-64
2022/05/26 07:16:02;;;;;;;;;;;;;;;;;;4982651;28;106946;-65
2022/05/26 07:18:28;;;;;;;;;;;;;;;;;;4966722;28;135294;-68
2022/05/26 07:20:55;;;;;;;;;;;;;;;;;;4972549;28;126553;-65
2022/05/26 07:23:21;;;;;;;;;;;;;;;;;;4962449;28;126194;-66
2022/05/26 07:25:48;;;;;;;;;;;;;;;;;;4970315;28;136433;-65
2022/05/26 07:28:14;;;;;;;;;;;;;;;;;;4963862;28;121479;-66
2022/05/26 07:30:40;;;;;;;;;;;;;;;;;;4959013;28;133879;-66
2022/05/26 07:33:07;;;;;;;;;;;;;;;;;;4965530;28;137226;-65
2022/05/26 07:35:33;;;;;;;;;;;;;;;;;;4963192;28;110475;-66
2022/05/26 07:43:29;;;;;;;;;;;;;;;;;;4962236;28;121819;-64
2022/05/26 07:45:56;;;;;;;;;;;;;;;;;;4961026;28;135616;-65
2022/05/26 07:48:22;;;;;;;;;;;;;;;;;;4962195;28;107043;-68
2022/05/26 07:50:48;;;;;;;;;;;;;;;;;;4962321;28;123527;-68
2022/05/26 07:53:14;;;;;;;;;;;;;;;;;;4963250;28;111653;-65
2022/05/26 07:55:42;;;;;;;;;;;;;;;;;;4969633;28;116198;-65
2022/05/26 07:58:09;;;;;;;;;;;;;;;;;;4970711;28;134389;-65
2022/05/26 08:00:35;;;;;;;;;;;;;;;;;;4968163;28;120566;-66
2022/05/26 08:03:01;;;;;;;;;;;;;;;;;;4972673;28;106137;-65
2022/05/26 08:05:28;;;;;;;;;;;;;;;;;;4962041;28;136734;-66
2022/05/26 08:07:54;;;;;;;;;;;;;;;;;;4972475;28;138367;-65
2022/05/26 08:10:20;;;;;;;;;;;;;;;;;;4959363;28;106865;-65
2022/05/26 08:12:46;;;;;;;;;;;;;;;;;;4968003;28;136937;-65
2022/05/26 08:15:13;;;;;;;;;;;;;;;;;;4968550;28;115752;-65
2022/05/26 08:17:39;;;;;;;;;;;;;;;;;;4964018;28;137987;-65
2022/05/26 08:20:05;;;;;;;;;;;;;;;;;;4962658;28;135757;-66
2022/05/26 08:22:32;;;;;;;;;;;;;;;;;;4966129;28;123296;-65
2022/05/26 08:24:59;;;;;;;;;;;;;;;;;;4964006;28;106768;-65
2022/05/26 08:27:25;;;;;;;;;;;;;;;;;;4964187;28;137041;-67
2022/05/26 08:29:54;;;;;;;;;;;;;;;;;;4961144;28;120592;-65
2022/05/26 08:32:20;;;;;;;;;;;;;;;;;;4964282;28;120547;-66
2022/05/26 08:34:47;;;;;;;;;;;;;;;;;;4965837;28;123264;-66
2022/05/26 08:37:13;;;;;;;;;;;;;;;;;;4961846;28;136806;-65
2022/05/26 08:39:40;;;;;;;;;;;;;;;;;;4968902;28;135587;-64
2022/05/26 08:42:06;;;;;;;;;;;;;;;;;;4958198;28;122258;-65
2022/05/26 08:44:32;;;;;;;;;;;;;;;;;;4964781;28;128718;-65
2022/05/26 08:47:01;;;;;;;;;;;;;;;;;;4970627;28;107174;-65
2022/05/26 08:49:27;;;;;;;;;;;;;;;;;;4964760;28;121697;-65
2022/05/26 08:51:54;;;;;;;;;;;;;;;;;;4966912;28;136335;-65
2022/05/26 08:54:20;;;;;;;;;;;;;;;;;;4967809;28;121987;-65
2022/05/26 08:56:47;;;;;;;;;;;;;;;;;;4965925;28;135167;-65
2022/05/26 08:59:13;;;;;;;;;;;;;;;;;;4968555;28;137209;-65
2022/05/26 09:01:39;;;;;;;;;;;;;;;;;;4962277;28;124561;-65
2022/05/26 09:04:06;;;;;;;;;;;;;;;;;;4961616;28;130055;-65
2022/05/26 09:12:55;;;;;;;;;;;;;;;;;;4967256;28;135260;-65
2022/05/26 09:14:48;;;;;;;;;;;;;;;;;;4964422;28;134667;-65
2022/05/26 09:17:14;;;;;;;;;;;;;;;;;;4962407;28;135872;-65
2022/05/26 09:19:41;;;;;;;;;;;;;;;;;;4965669;28;137097;-65
2022/05/26 09:22:07;;;;;;;;;;;;;;;;;;4963902;28;123834;-66
2022/05/26 09:24:33;;;;;;;;;;;;;;;;;;4962094;28;137073;-66
2022/05/26 09:27:00;;;;;;;;;;;;;;;;;;4963033;28;137077;-65
2022/05/26 09:29:26;;;;;;;;;;;;;;;;;;4970256;28;106138;-65
2022/05/26 09:31:53;;;;;;;;;;;;;;;;;;4968258;28;136984;-65
2022/05/26 09:34:32;;;;;;;;;;;;;;;;;;4957225;28;114165;-65
2022/05/26 09:37:00;;;;;;;;;;;;;;;;;;4975121;28;106420;-67
2022/05/26 09:39:30;;;;;;;;;;;;;;;;;;4957390;28;134109;-66
2022/05/26 09:41:56;;;;;;;;;;;;;;;;;;4958518;28;122597;-66
2022/05/26 09:44:23;;;;;;;;;;;;;;;;;;4965357;28;134156;-66
2022/05/26 09:46:49;;;;;;;;;;;;;;;;;;4963306;28;119768;-65
2022/05/26 09:49:16;;;;;;;;;;;;;;;;;;4963545;28;121286;-66
2022/05/26 09:51:42;;;;;;;;;;;;;;;;;;4969684;28;135383;-66
2022/05/26 09:54:08;;;;;;;;;;;;;;;;;;4958851;28;137109;-66
2022/05/26 09:56:34;;;;;;;;;;;;;;;;;;4969125;28;124835;-66
2022/05/26 09:59:01;;;;;;;;;;;;;;;;;;4966806;28;136484;-66
2022/05/26 10:01:27;;;;;;;;;;;;;;;;;;4965812;28;112121;-66
2022/05/26 10:03:53;;;;;;;;;;;;;;;;;;4966553;28;134476;-66
2022/05/26 10:06:19;;;;;;;;;;;;;;;;;;4961080;28;136413;-67
2022/05/26 10:08:46;;;;;;;;;;;;;;;;;;4968523;28;106879;-67
2022/05/26 10:11:12;;;;;;;;;;;;;;;;;;4961371;28;130469;-67
2022/05/26 10:13:38;;;;;;;;;;;;;;;;;;4962777;28;125505;-67
2022/05/26 10:16:05;;;;;;;;;;;;;;;;;;4965070;28;124153;-68
2022/05/26 10:18:31;;;;;;;;;;;;;;;;;;4964779;28;136378;-67
2022/05/26 10:20:57;;;;;;;;;;;;;;;;;;4962964;28;123243;-67
2022/05/26 10:23:24;;;;;;;;;;;;;;;;;;4952748;28;133988;-67
2022/05/26 10:25:50;;;;;;;;;;;;;;;;;;4964861;28;135898;-66
2022/05/26 10:28:17;;;;;;;;;;;;;;;;;;4959951;28;123336;-65
2022/05/26 10:30:43;;;;;;;;;;;;;;;;;;4966017;28;137155;-66
2022/05/26 10:33:09;;;;;;;;;;;;;;;;;;4960880;28;131506;-67
2022/05/26 10:35:35;;;;;;;;;;;;;;;;;;4962431;28;123406;-68
2022/05/26 10:38:02;;;;;;;;;;;;;;;;;;4968440;28;137492;-67
2022/05/26 10:40:28;;;;;;;;;;;;;;;;;;4959722;28;136458;-65
2022/05/26 10:42:54;;;;;;;;;;;;;;;;;;4957340;28;136024;-65
2022/05/26 10:45:21;;;;;;;;;;;;;;;;;;4963318;28;136271;-65
2022/05/26 10:47:47;;;;;;;;;;;;;;;;;;4968776;28;115368;-67
2022/05/26 10:50:13;;;;;;;;;;;;;;;;;;4960466;28;106836;-66
2022/05/26 10:52:40;;;;;;;;;;;;;;;;;;4967901;28;137548;-65
2022/05/26 10:55:06;;;;;;;;;;;;;;;;;;4965227;28;123418;-67
2022/05/26 10:57:32;;;;;;;;;;;;;;;;;;4967215;28;117871;-67
2022/05/26 10:59:58;;;;;;;;;;;;;;;;;;4968357;28;107373;-65
2022/05/26 11:02:28;;;;;;;;;;;;;;;;;;4968811;28;122917;-65
2022/05/26 11:05:01;;;;;;;;;;;;;;;;;;4967080;28;136193;-67
2022/05/26 11:07:28;;;;;;;;;;;;;;;;;;4965239;28;123334;-67
2022/05/26 11:09:54;;;;;;;;;;;;;;;;;;4966871;28;133641;-67
2022/05/26 11:12:20;;;;;;;;;;;;;;;;;;4959767;28;138318;-67
2022/05/26 11:17:31;;;;;;;;;;;;;;;;;;4966364;28;136755;-66
2022/05/26 11:19:58;;;;;;;;;;;;;;;;;;4963403;28;137945;-67
2022/05/26 11:22:24;;;;;;;;;;;;;;;;;;4963108;28;123309;-67
2022/05/26 11:24:50;;;;;;;;;;;;;;;;;;4969003;28;135190;-66
2022/05/26 11:27:17;;;;;;;;;;;;;;;;;;4962031;28;110955;-65
2022/05/26 11:29:46;;;;;;;;;;;;;;;;;;4967800;28;136260;-66
2022/05/26 11:36:07;;;;;;;;;;;;;;;;;;4950533;28;122887;-68
2022/05/26 11:37:54;;;;;;;;;;;;;;;;;;4968006;28;136180;-66
2022/05/26 11:40:20;;;;;;;;;;;;;;;;;;4962684;28;136200;-66
2022/05/26 11:42:47;;;;;;;;;;;;;;;;;;4965013;28;122170;-66
2022/05/26 11:45:13;;;;;;;;;;;;;;;;;;4962232;28;137604;-66
2022/05/26 11:47:39;;;;;;;;;;;;;;;;;;4968078;28;137195;-66
2022/05/26 11:50:06;;;;;;;;;;;;;;;;;;4961424;28;136502;-68
2022/05/26 11:52:34;;;;;;;;;;;;;;;;;;4967085;28;133046;-67
2022/05/26 11:55:03;;;;;;;;;;;;;;;;;;4965476;28;116083;-67
2022/05/26 11:57:30;;;;;;;;;;;;;;;;;;4964829;28;137748;-67
2022/05/26 11:59:56;;;;;;;;;;;;;;;;;;4952862;28;136208;-67
2022/05/26 12:02:23;;;;;;;;;;;;;;;;;;4965189;28;123400;-67
2022/05/26 12:04:50;;;;;;;;;;;;;;;;;;4957033;28;140797;-65
2022/05/26 12:07:22;;;;;;;;;;;;;;;;;;4965832;28;137915;-68
2022/05/26 12:09:49;;;;;;;;;;;;;;;;;;4968156;28;136954;-66
2022/05/26 12:12:15;;;;;;;;;;;;;;;;;;4957029;28;135876;-65
2022/05/26 12:14:41;;;;;;;;;;;;;;;;;;4963591;28;122112;-66
2022/05/26 12:17:07;;;;;;;;;;;;;;;;;;4960481;28;137374;-66
2022/05/26 12:19:34;;;;;;;;;;;;;;;;;;4957943;28;133035;-66
2022/05/26 12:22:00;;;;;;;;;;;;;;;;;;4961040;28;124137;-65
2022/05/26 12:24:26;;;;;;;;;;;;;;;;;;4960682;28;107598;-67
2022/05/26 12:26:55;;;;;;;;;;;;;;;;;;4958451;28;136563;-67
2022/05/26 12:29:21;;;;;;;;;;;;;;;;;;4956535;28;123504;-67
2022/05/26 12:31:47;;;;;;;;;;;;;;;;;;4961116;28;137307;-66
2022/05/26 12:34:14;;;;;;;;;;;;;;;;;;4967378;28;122196;-65
2022/05/26 12:36:40;;;;;;;;;;;;;;;;;;4965424;28;135487;-66
2022/05/26 12:39:06;;;;;;;;;;;;;;;;;;4962797;28;115807;-66
2022/05/26 12:41:33;;;;;;;;;;;;;;;;;;4963801;28;107688;-66
2022/05/26 12:44:15;;;;;;;;;;;;;;;;;;4965654;28;136204;-66
2022/05/26 12:46:41;;;;;;;;;;;;;;;;;;4963979;28;130022;-65
2022/05/26 12:49:08;;;;;;;;;;;;;;;;;;4959534;28;123438;-67
2022/05/26 12:51:34;;;;;;;;;;;;;;;;;;4968242;28;136817;-68
2022/05/26 12:54:00;;;;;;;;;;;;;;;;;;4966063;28;122153;-67
2022/05/26 12:56:27;;;;;;;;;;;;;;;;;;4960115;28;114872;-68
2022/05/26 12:58:53;;;;;;;;;;;;;;;;;;4967495;28;115215;-67
2022/05/26 13:01:20;;;;;;;;;;;;;;;;;;4961960;28;123527;-67
2022/05/26 13:03:46;;;;;;;;;;;;;;;;;;4962928;28;135854;-67
2022/05/26 13:06:12;;;;;;;;;;;;;;;;;;4963516;28;134470;-68
2022/05/26 13:08:39;;;;;;;;;;;;;;;;;;4969436;28;125972;-67
2022/05/26 13:11:06;;;;;;;;;;;;;;;;;;4963152;28;136605;-68
2022/05/26 13:13:32;;;;;;;;;;;;;;;;;;4967282;28;135997;-67
2022/05/26 13:15:58;;;;;;;;;;;;;;;;;;4961059;28;136786;-68
2022/05/26 13:18:28;;;;;;;;;;;;;;;;;;4963682;28;137580;-68
2022/05/26 13:20:54;;;;;;;;;;;;;;;;;;4962081;28;124544;-67
2022/05/26 13:23:23;;;;;;;;;;;;;;;;;;4969216;28;137930;-68
2022/05/26 13:25:50;;;;;;;;;;;;;;;;;;4968716;28;107337;-69
2022/05/26 13:28:16;;;;;;;;;;;;;;;;;;4969635;28;122078;-70
2022/05/26 13:33:43;;;;;;;;;;;;;;;;;;4965074;28;122057;-71
2022/05/26 13:36:10;;;;;;;;;;;;;;;;;;4971466;28;122489;-71
2022/05/26 13:38:36;;;;;;;;;;;;;;;;;;4965329;28;138163;-69
2022/05/26 13:41:03;;;;;;;;;;;;;;;;;;4961189;28;123076;-72
2022/05/26 13:43:29;;;;;;;;;;;;;;;;;;4966346;28;109223;-70
2022/05/26 13:45:56;;;;;;;;;;;;;;;;;;4962012;28;132457;-70
2022/05/26 13:48:22;;;;;;;;;;;;;;;;;;4957370;28;107017;-70
2022/05/26 13:50:50;;;;;;;;;;;;;;;;;;4965914;28;136645;-70
2022/05/26 13:53:16;;;;;;;;;;;;;;;;;;4967814;28;136026;-70
2022/05/26 13:55:42;;;;;;;;;;;;;;;;;;4959485;28;123938;-70
2022/05/26 13:58:09;;;;;;;;;;;;;;;;;;4957708;28;136128;-71
2022/05/26 14:00:35;;;;;;;;;;;;;;;;;;4961813;28;124517;-70
2022/05/26 14:03:01;;;;;;;;;;;;;;;;;;4961738;28;136541;-71
2022/05/26 14:05:28;;;;;;;;;;;;;;;;;;4966321;28;136561;-70
2022/05/26 14:07:54;;;;;;;;;;;;;;;;;;4963313;28;123354;-69
2022/05/26 14:10:20;;;;;;;;;;;;;;;;;;4961890;28;135844;-70
2022/05/26 14:12:47;;;;;;;;;;;;;;;;;;4962879;28;119484;-69
2022/05/26 14:15:13;;;;;;;;;;;;;;;;;;4968186;28;121470;-70
2022/05/26 14:17:39;;;;;;;;;;;;;;;;;;4967799;28;137294;-70
2022/05/26 14:20:13;;;;;;;;;;;;;;;;;;4962274;28;106871;-71
2022/05/26 14:22:39;;;;;;;;;;;;;;;;;;4960734;28;135558;-72
2022/05/26 14:25:05;;;;;;;;;;;;;;;;;;4961136;28;136601;-70
2022/05/26 14:27:31;;;;;;;;;;;;;;;;;;4966984;28;123211;-71
2022/05/26 14:29:58;;;;;;;;;;;;;;;;;;4957653;28;113163;-72
2022/05/26 14:32:24;;;;;;;;;;;;;;;;;;4965665;28;137312;-71
2022/05/26 14:34:51;;;;;;;;;;;;;;;;;;4963918;28;123425;-70
2022/05/26 14:37:17;;;;;;;;;;;;;;;;;;4968967;28;134043;-71
2022/05/26 14:39:43;;;;;;;;;;;;;;;;;;4962435;28;134341;-71
2022/05/26 14:42:09;;;;;;;;;;;;;;;;;;4964265;28;137000;-69
2022/05/26 14:44:36;;;;;;;;;;;;;;;;;;4957311;28;136759;-71
2022/05/26 14:47:02;;;;;;;;;;;;;;;;;;4954227;28;124650;-70
2022/05/26 14:49:29;;;;;;;;;;;;;;;;;;4968859;28;107896;-71
2022/05/26 14:51:55;;;;;;;;;;;;;;;;;;4960327;28;137381;-71
2022/05/26 14:57:11;;;;;;;;;;;;;;;;;;4956000;28;135630;-70
2022/05/26 14:59:37;;;;;;;;;;;;;;;;;;4960346;28;138405;-68
2022/05/26 15:02:08;;;;;;;;;;;;;;;;;;4970645;28;108054;-70
2022/05/26 15:04:35;;;;;;;;;;;;;;;;;;4962141;28;137468;-71
2022/05/26 15:07:01;;;;;;;;;;;;;;;;;;4964892;28;118430;-69
2022/05/26 15:09:27;;;;;;;;;;;;;;;;;;4964195;28;133889;-71
2022/05/26 15:11:53;;;;;;;;;;;;;;;;;;4964458;28;135831;-70
2022/05/26 15:14:20;;;;;;;;;;;;;;;;;;4964847;28;123214;-68
2022/05/26 15:16:47;;;;;;;;;;;;;;;;;;4967235;28;136830;-69
2022/05/26 15:19:13;;;;;;;;;;;;;;;;;;4965499;28;136868;-69
2022/05/26 15:21:39;;;;;;;;;;;;;;;;;;4960320;28;112200;-71
2022/05/26 15:24:06;;;;;;;;;;;;;;;;;;4966414;28;133616;-72
2022/05/26 15:26:32;;;;;;;;;;;;;;;;;;4963007;28;123289;-67
2022/05/26 15:28:58;;;;;;;;;;;;;;;;;;4964207;28;128969;-69
2022/05/26 15:31:30;;;;;;;;;;;;;;;;;;4967058;28;137169;-68
2022/05/26 15:33:56;;;;;;;;;;;;;;;;;;4958091;28;120506;-68
2022/05/26 15:36:22;;;;;;;;;;;;;;;;;;4963294;28;136871;-68
2022/05/26 15:38:49;;;;;;;;;;;;;;;;;;4965363;28;112837;-69
2022/05/26 15:41:15;;;;;;;;;;;;;;;;;;4967070;28;120617;-70
2022/05/26 15:43:44;;;;;;;;;;;;;;;;;;4962207;28;114392;-69
2022/05/26 15:46:10;;;;;;;;;;;;;;;;;;4968473;28;136193;-68
2022/05/26 15:48:36;;;;;;;;;;;;;;;;;;4961489;28;137180;-69
2022/05/26 15:51:03;;;;;;;;;;;;;;;;;;4963258;28;137211;-67
2022/05/26 15:53:29;;;;;;;;;;;;;;;;;;4969102;28;106778;-70
2022/05/26 15:55:55;;;;;;;;;;;;;;;;;;4964555;28;124645;-71
2022/05/26 15:58:25;;;;;;;;;;;;;;;;;;4965323;28;125942;-71
2022/05/26 16:00:51;;;;;;;;;;;;;;;;;;4964002;28;126536;-68
2022/05/26 16:03:18;;;;;;;;;;;;;;;;;;4973526;28;125462;-67
2022/05/26 16:05:44;;;;;;;;;;;;;;;;;;4962818;28;128523;-66
2022/05/26 16:08:10;;;;;;;;;;;;;;;;;;4969479;28;117040;-67
2022/05/26 16:10:37;;;;;;;;;;;;;;;;;;4964275;28;138441;-65
2022/05/26 16:13:04;;;;;;;;;;;;;;;;;;4957899;28;123174;-65
2022/05/26 16:15:30;;;;;;;;;;;;;;;;;;4966142;28;136617;-68
2022/05/26 16:17:56;;;;;;;;;;;;;;;;;;4972459;28;137126;-67
2022/05/26 16:20:23;;;;;;;;;;;;;;;;;;4983165;27;123881;-66
2022/05/26 16:22:51;;;;;;;;;;;;;;;;;;4967190;28;114795;-67
2022/05/26 16:25:18;;;;;;;;;;;;;;;;;;4969319;28;135848;-67
2022/05/26 16:27:44;;;;;;;;;;;;;;;;;;4973143;28;124103;-68
2022/05/26 16:30:10;;;;;;;;;;;;;;;;;;4965029;28;116559;-66
2022/05/26 16:32:37;;;;;;;;;;;;;;;;;;4972089;28;123511;-66
2022/05/26 16:37:48;;;;;;;;;;;;;;;;;;4981182;28;134059;-67
2022/05/26 16:40:14;;;;;;;;;;;;;;;;;;4973219;28;120666;-67
2022/05/26 16:42:40;;;;;;;;;;;;;;;;;;4967341;28;136934;-68
2022/05/26 16:45:07;;;;;;;;;;;;;;;;;;4968368;28;130089;-68
2022/05/26 16:47:33;;;;;;;;;;;;;;;;;;4960340;28;120145;-68
2022/05/26 16:49:59;;;;;;;;;;;;;;;;;;4971649;28;137194;-68
2022/05/26 16:52:26;;;;;;;;;;;;;;;;;;4963014;28;107380;-67
2022/05/26 16:54:53;;;;;;;;;;;;;;;;;;4975460;27;127125;-65
2022/05/26 16:57:20;;;;;;;;;;;;;;;;;;4965224;28;136775;-66
2022/05/26 16:59:46;;;;;;;;;;;;;;;;;;4965938;28;116955;-65
2022/05/26 17:02:12;;;;;;;;;;;;;;;;;;4967774;28;137056;-65
2022/05/26 17:04:38;;;;;;;;;;;;;;;;;;4973871;28;106714;-65
2022/05/26 17:07:05;;;;;;;;;;;;;;;;;;4973053;28;122311;-66
2022/05/26 17:09:31;;;;;;;;;;;;;;;;;;4962949;28;135137;-65